sensor_id;sensor_type;location;lat;lon;timestamp;pressure;altitude;pressure_sealevel;temperature;humidity
61357;BME280;47227;46.752;23.576;2023-03-17T00:01:12;96875.17;;;-0.76;81.68
61357;BME280;47227;46.752;23.576;2023-03-17T00:03:42;96875.66;;;-0.81;81.41
61357;BME280;47227;46.752;23.576;2023-03-17T00:06:13;96876.08;;;-0.87;81.57
61357;BME280;47227;46.752;23.576;2023-03-17T00:08:43;96880.07;;;-0.92;81.39
61357;BME280;47227;46.752;23.576;2023-03-17T00:11:13;96879.31;;;-0.98;81.61
61357;BME280;47227;46.752;23.576;2023-03-17T00:13:42;96874.25;;;-1.04;81.39
61357;BME280;47227;46.752;23.576;2023-03-17T00:16:14;96876.81;;;-1.09;81.54
61357;BME280;47227;46.752;23.576;2023-03-17T00:18:43;96876.07;;;-1.15;81.51
61357;BME280;47227;46.752;23.576;2023-03-17T00:21:12;96875.61;;;-1.20;81.53
61357;BME280;47227;46.752;23.576;2023-03-17T00:23:42;96874.09;;;-1.26;81.51
61357;BME280;47227;46.752;23.576;2023-03-17T00:26:12;96874.60;;;-1.29;81.55
61357;BME280;47227;46.752;23.576;2023-03-17T00:28:41;96874.20;;;-1.34;81.94
61357;BME280;47227;46.752;23.576;2023-03-17T00:31:12;96874.91;;;-1.37;81.72
61357;BME280;47227;46.752;23.576;2023-03-17T00:33:41;96875.41;;;-1.40;81.75
61357;BME280;47227;46.752;23.576;2023-03-17T00:36:12;96872.80;;;-1.43;81.67
61357;BME280;47227;46.752;23.576;2023-03-17T00:38:40;96872.19;;;-1.45;82.02
61357;BME280;47227;46.752;23.576;2023-03-17T00:41:08;96870.95;;;-1.47;82.00
61357;BME280;47227;46.752;23.576;2023-03-17T00:43:36;96871.45;;;-1.48;81.93
61357;BME280;47227;46.752;23.576;2023-03-17T00:46:21;96871.10;;;-1.52;81.63
61357;BME280;47227;46.752;23.576;2023-03-17T00:48:51;96870.57;;;-1.53;81.88
61357;BME280;47227;46.752;23.576;2023-03-17T00:51:19;96871.15;;;-1.56;81.33
61357;BME280;47227;46.752;23.576;2023-03-17T00:53:47;96873.52;;;-1.59;82.00
61357;BME280;47227;46.752;23.576;2023-03-17T00:56:16;96871.09;;;-1.62;81.80
61357;BME280;47227;46.752;23.576;2023-03-17T00:58:44;96874.89;;;-1.64;82.21
61357;BME280;47227;46.752;23.576;2023-03-17T01:01:14;96871.66;;;-1.66;81.98
61357;BME280;47227;46.752;23.576;2023-03-17T01:03:42;96868.64;;;-1.68;82.19
61357;BME280;47227;46.752;23.576;2023-03-17T01:06:13;96866.02;;;-1.71;81.93
61357;BME280;47227;46.752;23.576;2023-03-17T01:08:42;96867.34;;;-1.72;81.74
61357;BME280;47227;46.752;23.576;2023-03-17T01:11:12;96864.94;;;-1.76;81.83
61357;BME280;47227;46.752;23.576;2023-03-17T01:13:41;96868.74;;;-1.80;81.52
61357;BME280;47227;46.752;23.576;2023-03-17T01:16:09;96871.21;;;-1.83;82.09
61357;BME280;47227;46.752;23.576;2023-03-17T01:18:38;96870.96;;;-1.88;82.22
61357;BME280;47227;46.752;23.576;2023-03-17T01:21:06;96868.11;;;-1.91;81.71
61357;BME280;47227;46.752;23.576;2023-03-17T01:23:35;96869.01;;;-1.96;82.13
61357;BME280;47227;46.752;23.576;2023-03-17T01:26:04;96870.83;;;-1.98;82.28
61357;BME280;47227;46.752;23.576;2023-03-17T01:28:32;96867.33;;;-2.01;82.56
61357;BME280;47227;46.752;23.576;2023-03-17T01:31:00;96868.67;;;-2.02;82.49
61357;BME280;47227;46.752;23.576;2023-03-17T01:33:29;96868.22;;;-2.03;82.32
61357;BME280;47227;46.752;23.576;2023-03-17T01:35:57;96869.45;;;-2.05;82.17
61357;BME280;47227;46.752;23.576;2023-03-17T01:38:25;96872.19;;;-2.07;82.41
61357;BME280;47227;46.752;23.576;2023-03-17T01:40:53;96872.47;;;-2.08;82.23
61357;BME280;47227;46.752;23.576;2023-03-17T01:43:23;96874.98;;;-2.07;81.79
61357;BME280;47227;46.752;23.576;2023-03-17T01:48:39;96874.95;;;-2.02;82.29
61357;BME280;47227;46.752;23.576;2023-03-17T01:51:09;96875.98;;;-1.97;82.44
61357;BME280;47227;46.752;23.576;2023-03-17T01:53:40;96876.31;;;-1.93;82.48
61357;BME280;47227;46.752;23.576;2023-03-17T01:56:08;96882.92;;;-1.89;82.67
61357;BME280;47227;46.752;23.576;2023-03-17T01:58:36;96886.00;;;-1.82;82.83
61357;BME280;47227;46.752;23.576;2023-03-17T02:01:04;96887.52;;;-1.79;82.63
61357;BME280;47227;46.752;23.576;2023-03-17T02:03:33;96888.63;;;-1.76;82.83
61357;BME280;47227;46.752;23.576;2023-03-17T02:06:01;96892.15;;;-1.72;82.80
61357;BME280;47227;46.752;23.576;2023-03-17T02:08:30;96891.27;;;-1.66;83.09
61357;BME280;47227;46.752;23.576;2023-03-17T02:11:00;96890.16;;;-1.65;82.52
61357;BME280;47227;46.752;23.576;2023-03-17T02:13:30;96893.30;;;-1.64;82.83
61357;BME280;47227;46.752;23.576;2023-03-17T02:15:58;96891.58;;;-1.62;82.90
61357;BME280;47227;46.752;23.576;2023-03-17T02:18:27;96894.02;;;-1.63;82.73
61357;BME280;47227;46.752;23.576;2023-03-17T02:21:23;96892.33;;;-1.66;82.73
61357;BME280;47227;46.752;23.576;2023-03-17T02:23:43;96894.79;;;-1.72;82.67
61357;BME280;47227;46.752;23.576;2023-03-17T02:26:11;96896.14;;;-1.77;82.55
61357;BME280;47227;46.752;23.576;2023-03-17T02:28:40;96898.57;;;-1.83;82.77
61357;BME280;47227;46.752;23.576;2023-03-17T02:31:08;96906.41;;;-1.89;82.88
61357;BME280;47227;46.752;23.576;2023-03-17T02:33:36;96907.34;;;-1.95;82.71
61357;BME280;47227;46.752;23.576;2023-03-17T02:36:04;96908.73;;;-2.00;82.80
61357;BME280;47227;46.752;23.576;2023-03-17T02:38:32;96907.73;;;-2.06;82.77
61357;BME280;47227;46.752;23.576;2023-03-17T02:41:00;96911.02;;;-2.11;82.65
61357;BME280;47227;46.752;23.576;2023-03-17T02:43:28;96913.70;;;-2.18;82.38
61357;BME280;47227;46.752;23.576;2023-03-17T02:45:57;96918.75;;;-2.22;82.99
61357;BME280;47227;46.752;23.576;2023-03-17T02:48:24;96917.60;;;-2.26;82.79
61357;BME280;47227;46.752;23.576;2023-03-17T02:50:52;96921.14;;;-2.29;82.67
61357;BME280;47227;46.752;23.576;2023-03-17T02:53:20;96926.36;;;-2.31;82.78
61357;BME280;47227;46.752;23.576;2023-03-17T02:55:48;96929.03;;;-2.34;82.80
61357;BME280;47227;46.752;23.576;2023-03-17T02:58:16;96932.64;;;-2.38;82.94
61357;BME280;47227;46.752;23.576;2023-03-17T03:00:44;96933.94;;;-2.41;82.65
61357;BME280;47227;46.752;23.576;2023-03-17T03:03:12;96933.65;;;-2.43;83.41
61357;BME280;47227;46.752;23.576;2023-03-17T03:05:40;96936.02;;;-2.45;83.05
61357;BME280;47227;46.752;23.576;2023-03-17T03:08:08;96936.88;;;-2.46;83.01
61357;BME280;47227;46.752;23.576;2023-03-17T03:10:36;96942.23;;;-2.47;83.53
61357;BME280;47227;46.752;23.576;2023-03-17T03:13:04;96945.55;;;-2.49;83.02
61357;BME280;47227;46.752;23.576;2023-03-17T03:15:31;96947.85;;;-2.52;83.08
61357;BME280;47227;46.752;23.576;2023-03-17T03:17:59;96954.69;;;-2.55;83.21
61357;BME280;47227;46.752;23.576;2023-03-17T03:20:27;96954.53;;;-2.59;82.86
61357;BME280;47227;46.752;23.576;2023-03-17T03:22:56;96957.73;;;-2.64;82.89
61357;BME280;47227;46.752;23.576;2023-03-17T03:25:23;96955.86;;;-2.68;83.07
61357;BME280;47227;46.752;23.576;2023-03-17T03:27:51;96959.50;;;-2.72;83.26
61357;BME280;47227;46.752;23.576;2023-03-17T03:30:19;96961.95;;;-2.74;83.24
61357;BME280;47227;46.752;23.576;2023-03-17T03:32:47;96961.05;;;-2.77;83.15
61357;BME280;47227;46.752;23.576;2023-03-17T03:35:15;96964.42;;;-2.80;83.18
61357;BME280;47227;46.752;23.576;2023-03-17T03:37:43;96967.61;;;-2.83;83.63
61357;BME280;47227;46.752;23.576;2023-03-17T03:40:11;96972.11;;;-2.86;83.56
61357;BME280;47227;46.752;23.576;2023-03-17T03:42:39;96974.17;;;-2.87;83.63
61357;BME280;47227;46.752;23.576;2023-03-17T03:45:07;96977.48;;;-2.88;83.57
61357;BME280;47227;46.752;23.576;2023-03-17T03:47:35;96978.23;;;-2.89;83.43
61357;BME280;47227;46.752;23.576;2023-03-17T03:50:03;96985.80;;;-2.89;83.80
61357;BME280;47227;46.752;23.576;2023-03-17T03:52:31;96982.45;;;-2.90;84.07
61357;BME280;47227;46.752;23.576;2023-03-17T03:54:59;96987.00;;;-2.91;83.79
61357;BME280;47227;46.752;23.576;2023-03-17T03:57:27;96987.02;;;-2.93;83.98
61357;BME280;47227;46.752;23.576;2023-03-17T03:59:55;96987.48;;;-2.94;84.26
61357;BME280;47227;46.752;23.576;2023-03-17T04:02:24;96990.18;;;-2.94;83.84
61357;BME280;47227;46.752;23.576;2023-03-17T04:04:53;96991.99;;;-2.93;83.83
61357;BME280;47227;46.752;23.576;2023-03-17T04:07:21;96992.48;;;-2.91;83.74
61357;BME280;47227;46.752;23.576;2023-03-17T04:10:10;96995.80;;;-2.88;83.59
61357;BME280;47227;46.752;23.576;2023-03-17T04:12:39;96995.56;;;-2.86;83.62
61357;BME280;47227;46.752;23.576;2023-03-17T04:15:07;96994.95;;;-2.83;83.87
61357;BME280;47227;46.752;23.576;2023-03-17T04:17:37;96990.06;;;-2.82;83.78
61357;BME280;47227;46.752;23.576;2023-03-17T04:20:05;96996.52;;;-2.83;83.69
61357;BME280;47227;46.752;23.576;2023-03-17T04:22:33;96999.89;;;-2.82;83.42
61357;BME280;47227;46.752;23.576;2023-03-17T04:25:04;97003.14;;;-2.81;83.87
61357;BME280;47227;46.752;23.576;2023-03-17T04:27:32;97007.89;;;-2.76;83.47
61357;BME280;47227;46.752;23.576;2023-03-17T04:30:00;97010.52;;;-2.73;83.67
61357;BME280;47227;46.752;23.576;2023-03-17T04:32:28;97004.34;;;-2.71;83.57
61357;BME280;47227;46.752;23.576;2023-03-17T04:34:56;97005.15;;;-2.69;83.76
61357;BME280;47227;46.752;23.576;2023-03-17T04:37:24;97006.23;;;-2.68;84.50
61357;BME280;47227;46.752;23.576;2023-03-17T04:40:12;97006.13;;;-2.69;84.28
61357;BME280;47227;46.752;23.576;2023-03-17T04:42:41;97005.56;;;-2.68;84.30
61357;BME280;47227;46.752;23.576;2023-03-17T04:45:35;97006.88;;;-2.67;84.08
61357;BME280;47227;46.752;23.576;2023-03-17T04:48:04;97008.48;;;-2.68;84.25
61357;BME280;47227;46.752;23.576;2023-03-17T04:50:32;97005.79;;;-2.70;83.86
61357;BME280;47227;46.752;23.576;2023-03-17T04:53:00;97005.78;;;-2.74;83.80
61357;BME280;47227;46.752;23.576;2023-03-17T04:55:29;97006.36;;;-2.78;83.68
61357;BME280;47227;46.752;23.576;2023-03-17T04:57:57;97007.95;;;-2.83;83.85
61357;BME280;47227;46.752;23.576;2023-03-17T05:00:40;97007.47;;;-2.85;83.70
61357;BME280;47227;46.752;23.576;2023-03-17T05:03:08;97008.08;;;-2.86;83.59
61357;BME280;47227;46.752;23.576;2023-03-17T05:05:53;97009.95;;;-2.87;83.84
61357;BME280;47227;46.752;23.576;2023-03-17T05:08:21;97008.45;;;-2.90;83.77
61357;BME280;47227;46.752;23.576;2023-03-17T05:11:02;97013.96;;;-2.90;83.84
61357;BME280;47227;46.752;23.576;2023-03-17T05:13:31;97012.20;;;-2.73;83.75
61357;BME280;47227;46.752;23.576;2023-03-17T05:16:00;97018.41;;;-2.42;83.81
61357;BME280;47227;46.752;23.576;2023-03-17T05:18:28;97020.94;;;-2.43;83.09
61357;BME280;47227;46.752;23.576;2023-03-17T05:20:57;97020.69;;;-2.52;83.21
61357;BME280;47227;46.752;23.576;2023-03-17T05:23:24;97023.52;;;-2.59;83.31
61357;BME280;47227;46.752;23.576;2023-03-17T05:25:53;97030.60;;;-2.63;83.13
61357;BME280;47227;46.752;23.576;2023-03-17T05:28:21;97026.84;;;-2.65;83.05
61357;BME280;47227;46.752;23.576;2023-03-17T05:30:49;97026.35;;;-2.65;83.19
61357;BME280;47227;46.752;23.576;2023-03-17T05:33:18;97027.91;;;-2.66;83.28
61357;BME280;47227;46.752;23.576;2023-03-17T05:35:47;97026.86;;;-2.65;83.16
61357;BME280;47227;46.752;23.576;2023-03-17T05:38:14;97033.02;;;-2.62;82.97
61357;BME280;47227;46.752;23.576;2023-03-17T05:40:43;97036.02;;;-2.57;83.09
61357;BME280;47227;46.752;23.576;2023-03-17T05:43:12;97034.56;;;-2.52;83.14
61357;BME280;47227;46.752;23.576;2023-03-17T05:45:41;97032.27;;;-2.47;83.15
61357;BME280;47227;46.752;23.576;2023-03-17T05:48:24;97036.95;;;-2.40;83.12
61357;BME280;47227;46.752;23.576;2023-03-17T05:51:23;97037.46;;;-2.33;82.93
61357;BME280;47227;46.752;23.576;2023-03-17T05:53:52;97038.70;;;-2.28;82.95
61357;BME280;47227;46.752;23.576;2023-03-17T05:56:43;97036.02;;;-2.21;83.18
61357;BME280;47227;46.752;23.576;2023-03-17T05:59:32;97028.55;;;-2.16;82.88
61357;BME280;47227;46.752;23.576;2023-03-17T06:02:55;97033.80;;;-2.10;82.77
61357;BME280;47227;46.752;23.576;2023-03-17T06:06:26;97029.85;;;-2.05;82.74
61357;BME280;47227;46.752;23.576;2023-03-17T06:09:56;97029.20;;;-2.02;82.74
61357;BME280;47227;46.752;23.576;2023-03-17T06:13:05;97030.42;;;-2.01;82.79
61357;BME280;47227;46.752;23.576;2023-03-17T06:15:53;97030.70;;;-2.00;82.69
61357;BME280;47227;46.752;23.576;2023-03-17T06:19:24;97034.88;;;-1.97;82.86
61357;BME280;47227;46.752;23.576;2023-03-17T06:23:16;97032.88;;;-1.91;82.54
61357;BME280;47227;46.752;23.576;2023-03-17T06:26:55;97041.83;;;-1.84;82.85
61357;BME280;47227;46.752;23.576;2023-03-17T06:30:36;97042.61;;;-1.78;82.46
61357;BME280;47227;46.752;23.576;2023-03-17T06:34:21;97046.73;;;-1.72;82.56
61357;BME280;47227;46.752;23.576;2023-03-17T06:37:57;97051.59;;;-1.63;82.47
61357;BME280;47227;46.752;23.576;2023-03-17T06:41:36;97056.02;;;-1.57;81.98
61357;BME280;47227;46.752;23.576;2023-03-17T06:45:10;97059.24;;;-1.50;81.59
61357;BME280;47227;46.752;23.576;2023-03-17T06:48:51;97061.40;;;-1.42;81.37
61357;BME280;47227;46.752;23.576;2023-03-17T06:52:48;97067.82;;;-1.33;80.88
61357;BME280;47227;46.752;23.576;2023-03-17T06:56:26;97068.71;;;-1.26;80.13
61357;BME280;47227;46.752;23.576;2023-03-17T07:00:07;97077.02;;;-1.13;80.62
61357;BME280;47227;46.752;23.576;2023-03-17T07:03:36;97078.93;;;-1.03;80.82
61357;BME280;47227;46.752;23.576;2023-03-17T07:06:05;97082.91;;;-0.91;81.41
61357;BME280;47227;46.752;23.576;2023-03-17T07:09:42;97081.62;;;-0.69;80.79
61357;BME280;47227;46.752;23.576;2023-03-17T07:13:23;97079.37;;;-0.63;80.99
61357;BME280;47227;46.752;23.576;2023-03-17T07:19:36;97076.91;;;-0.44;80.93
61357;BME280;47227;46.752;23.576;2023-03-17T07:22:49;97073.72;;;-0.31;80.22
61357;BME280;47227;46.752;23.576;2023-03-17T07:26:34;97078.23;;;-0.15;80.52
61357;BME280;47227;46.752;23.576;2023-03-17T07:29:25;97077.49;;;-0.02;80.34
61357;BME280;47227;46.752;23.576;2023-03-17T07:32:42;97079.36;;;0.13;79.56
61357;BME280;47227;46.752;23.576;2023-03-17T07:36:23;97086.64;;;0.31;79.69
61357;BME280;47227;46.752;23.576;2023-03-17T07:39:13;97092.08;;;0.42;79.64
61357;BME280;47227;46.752;23.576;2023-03-17T07:42:50;97092.20;;;0.58;78.47
61357;BME280;47227;46.752;23.576;2023-03-17T07:46:19;97089.14;;;0.65;70.58
61357;BME280;47227;46.752;23.576;2023-03-17T07:50:17;97086.51;;;0.80;73.39
61357;BME280;47227;46.752;23.576;2023-03-17T07:54:02;97090.40;;;0.95;74.60
61357;BME280;47227;46.752;23.576;2023-03-17T07:57:14;97085.89;;;1.04;71.25
61357;BME280;47227;46.752;23.576;2023-03-17T08:00:16;97087.02;;;1.14;72.89
61357;BME280;47227;46.752;23.576;2023-03-17T08:04:22;97082.56;;;1.29;73.88
61357;BME280;47227;46.752;23.576;2023-03-17T08:08:20;97080.89;;;1.42;73.52
61357;BME280;47227;46.752;23.576;2023-03-17T08:12:10;97079.20;;;1.55;66.41
61357;BME280;47227;46.752;23.576;2023-03-17T08:15:55;97077.94;;;1.58;62.82
61357;BME280;47227;46.752;23.576;2023-03-17T08:19:19;97080.48;;;1.64;62.51
61357;BME280;47227;46.752;23.576;2023-03-17T08:23:05;97083.41;;;1.81;67.36
61357;BME280;47227;46.752;23.576;2023-03-17T08:30:01;97090.56;;;2.10;64.95
61357;BME280;47227;46.752;23.576;2023-03-17T08:33:12;97090.68;;;2.19;60.08
61357;BME280;47227;46.752;23.576;2023-03-17T08:36:30;97085.54;;;2.27;60.60
61357;BME280;47227;46.752;23.576;2023-03-17T08:40:01;97083.02;;;2.29;57.98
61357;BME280;47227;46.752;23.576;2023-03-17T08:43:36;97077.68;;;2.41;57.77
61357;BME280;47227;46.752;23.576;2023-03-17T08:46:44;97081.94;;;2.61;61.98
61357;BME280;47227;46.752;23.576;2023-03-17T08:50:59;97080.99;;;2.87;60.75
61357;BME280;47227;46.752;23.576;2023-03-17T08:54:27;97079.59;;;3.05;61.87
61357;BME280;47227;46.752;23.576;2023-03-17T08:58:07;97079.25;;;3.24;62.44
61357;BME280;47227;46.752;23.576;2023-03-17T09:01:39;97072.90;;;3.41;61.59
61357;BME280;47227;46.752;23.576;2023-03-17T09:05:07;97071.52;;;3.60;59.44
61357;BME280;47227;46.752;23.576;2023-03-17T09:08:59;97075.48;;;3.66;54.52
61357;BME280;47227;46.752;23.576;2023-03-17T09:12:46;97081.33;;;3.78;57.21
61357;BME280;47227;46.752;23.576;2023-03-17T09:19:46;97071.62;;;4.06;54.52
61357;BME280;47227;46.752;23.576;2023-03-17T09:23:23;97066.27;;;4.27;56.60
61357;BME280;47227;46.752;23.576;2023-03-17T09:30:43;97062.11;;;4.63;55.19
61357;BME280;47227;46.752;23.576;2023-03-17T09:37:51;97051.60;;;4.96;51.76
61357;BME280;47227;46.752;23.576;2023-03-17T09:41:43;97047.49;;;5.07;54.37
61357;BME280;47227;46.752;23.576;2023-03-17T09:45:37;97051.17;;;5.32;55.16
61357;BME280;47227;46.752;23.576;2023-03-17T09:52:42;97056.30;;;5.61;51.26
61357;BME280;47227;46.752;23.576;2023-03-17T09:55:54;97055.38;;;5.74;52.54
61357;BME280;47227;46.752;23.576;2023-03-17T10:09:50;97050.10;;;6.39;50.68
61357;BME280;47227;46.752;23.576;2023-03-17T10:13:47;97040.55;;;6.56;47.76
61357;BME280;47227;46.752;23.576;2023-03-17T10:17:17;97037.45;;;6.64;46.14
61357;BME280;47227;46.752;23.576;2023-03-17T10:20:34;97042.20;;;6.75;49.06
61357;BME280;47227;46.752;23.576;2023-03-17T10:23:47;97044.42;;;6.90;47.29
61357;BME280;47227;46.752;23.576;2023-03-17T10:26:54;97040.43;;;6.96;46.16
61357;BME280;47227;46.752;23.576;2023-03-17T10:30:39;97034.33;;;7.12;47.84
61357;BME280;47227;46.752;23.576;2023-03-17T10:33:57;97033.45;;;7.21;45.18
61357;BME280;47227;46.752;23.576;2023-03-17T10:36:34;97029.79;;;7.11;43.28
61357;BME280;47227;46.752;23.576;2023-03-17T10:39:05;97029.05;;;6.87;41.81
61357;BME280;47227;46.752;23.576;2023-03-17T10:41:37;97030.09;;;7.06;44.49
61357;BME280;47227;46.752;23.576;2023-03-17T10:44:09;97029.81;;;7.27;42.44
61357;BME280;47227;46.752;23.576;2023-03-17T10:46:54;97027.10;;;7.32;41.64
61357;BME280;47227;46.752;23.576;2023-03-17T10:49:23;97019.52;;;7.64;44.58
61357;BME280;47227;46.752;23.576;2023-03-17T10:51:54;97016.70;;;7.89;42.45
61357;BME280;47227;46.752;23.576;2023-03-17T10:54:22;97014.95;;;8.16;43.28
61357;BME280;47227;46.752;23.576;2023-03-17T10:56:54;97011.33;;;8.47;43.35
61357;BME280;47227;46.752;23.576;2023-03-17T10:59:36;97010.73;;;8.80;43.16
61357;BME280;47227;46.752;23.576;2023-03-17T11:02:35;97008.16;;;8.90;36.99
61357;BME280;47227;46.752;23.576;2023-03-17T11:05:04;96997.93;;;8.27;37.34
61357;BME280;47227;46.752;23.576;2023-03-17T11:07:40;96999.98;;;8.47;37.64
61357;BME280;47227;46.752;23.576;2023-03-17T11:12:59;97000.86;;;9.49;39.12
61357;BME280;47227;46.752;23.576;2023-03-17T11:15:31;96997.34;;;9.87;38.60
61357;BME280;47227;46.752;23.576;2023-03-17T11:18:16;96989.95;;;10.22;39.32
61357;BME280;47227;46.752;23.576;2023-03-17T11:23:47;96980.66;;;11.10;38.54
61357;BME280;47227;46.752;23.576;2023-03-17T11:26:39;96978.23;;;11.40;36.42
61357;BME280;47227;46.752;23.576;2023-03-17T11:29:17;96968.87;;;11.69;34.91
61357;BME280;47227;46.752;23.576;2023-03-17T11:32:03;96960.83;;;11.94;32.96
61357;BME280;47227;46.752;23.576;2023-03-17T11:35:16;96958.27;;;11.79;28.97
61357;BME280;47227;46.752;23.576;2023-03-17T11:37:55;96957.25;;;11.90;30.84
61357;BME280;47227;46.752;23.576;2023-03-17T11:40:34;96959.89;;;12.42;31.38
61357;BME280;47227;46.752;23.576;2023-03-17T11:43:12;96959.35;;;12.85;30.96
61357;BME280;47227;46.752;23.576;2023-03-17T11:45:56;96961.61;;;13.34;29.30
61357;BME280;47227;46.752;23.576;2023-03-17T11:48:42;96953.64;;;13.57;27.19
61357;BME280;47227;46.752;23.576;2023-03-17T11:51:18;96954.80;;;13.63;27.84
61357;BME280;47227;46.752;23.576;2023-03-17T11:53:54;96952.66;;;13.84;27.89
61357;BME280;47227;46.752;23.576;2023-03-17T11:56:31;96950.24;;;14.04;28.38
61357;BME280;47227;46.752;23.576;2023-03-17T11:59:02;96949.73;;;14.22;29.57
61357;BME280;47227;46.752;23.576;2023-03-17T12:01:39;96944.03;;;14.37;28.81
61357;BME280;47227;46.752;23.576;2023-03-17T12:04:17;96938.56;;;14.55;25.69
61357;BME280;47227;46.752;23.576;2023-03-17T12:06:48;96940.63;;;14.50;25.29
61357;BME280;47227;46.752;23.576;2023-03-17T12:09:27;96938.77;;;14.23;25.62
61357;BME280;47227;46.752;23.576;2023-03-17T12:12:18;96936.42;;;14.28;24.63
61357;BME280;47227;46.752;23.576;2023-03-17T12:14:57;96932.20;;;14.37;25.00
61357;BME280;47227;46.752;23.576;2023-03-17T12:17:30;96929.56;;;14.12;25.29
61357;BME280;47227;46.752;23.576;2023-03-17T12:20:13;96933.63;;;14.13;25.47
61357;BME280;47227;46.752;23.576;2023-03-17T12:23:43;96932.13;;;14.41;24.20
61357;BME280;47227;46.752;23.576;2023-03-17T12:31:24;96929.04;;;14.47;24.88
61357;BME280;47227;46.752;23.576;2023-03-17T12:36:49;96921.08;;;14.86;22.35
61357;BME280;47227;46.752;23.576;2023-03-17T12:39:23;96921.40;;;14.91;22.86
61357;BME280;47227;46.752;23.576;2023-03-17T12:42:09;96925.59;;;14.68;23.32
61357;BME280;47227;46.752;23.576;2023-03-17T12:44:57;96924.73;;;14.82;23.14
61357;BME280;47227;46.752;23.576;2023-03-17T12:47:40;96910.55;;;15.42;22.17
61357;BME280;47227;46.752;23.576;2023-03-17T12:50:23;96911.91;;;14.96;21.82
61357;BME280;47227;46.752;23.576;2023-03-17T12:53:13;96904.59;;;15.56;21.47
61357;BME280;47227;46.752;23.576;2023-03-17T12:55:44;96897.99;;;16.12;22.32
61357;BME280;47227;46.752;23.576;2023-03-17T12:58:21;96892.09;;;16.25;20.70
61357;BME280;47227;46.752;23.576;2023-03-17T13:03:45;96888.60;;;16.64;21.07
61357;BME280;47227;46.752;23.576;2023-03-17T13:06:29;96889.88;;;16.62;20.81
61357;BME280;47227;46.752;23.576;2023-03-17T13:12:03;96891.70;;;16.98;21.09
61357;BME280;47227;46.752;23.576;2023-03-17T13:20:18;96882.73;;;18.19;19.83
61357;BME280;47227;46.752;23.576;2023-03-17T13:28:38;96872.09;;;18.70;19.80
61357;BME280;47227;46.752;23.576;2023-03-17T13:31:10;96871.61;;;18.84;19.24
61357;BME280;47227;46.752;23.576;2023-03-17T13:33:43;96869.48;;;19.20;19.58
61357;BME280;47227;46.752;23.576;2023-03-17T13:37:02;96867.73;;;17.94;19.99
61357;BME280;47227;46.752;23.576;2023-03-17T13:40:17;96865.73;;;17.71;21.16
61357;BME280;47227;46.752;23.576;2023-03-17T13:45:55;96863.06;;;17.87;20.04
61357;BME280;47227;46.752;23.576;2023-03-17T13:48:42;96859.25;;;17.77;19.87
61357;BME280;47227;46.752;23.576;2023-03-17T13:51:16;96862.11;;;18.02;19.56
61357;BME280;47227;46.752;23.576;2023-03-17T13:53:53;96860.67;;;17.74;19.25
61357;BME280;47227;46.752;23.576;2023-03-17T13:56:25;96857.23;;;17.73;19.21
61357;BME280;47227;46.752;23.576;2023-03-17T13:59:32;96853.02;;;18.30;19.34
61357;BME280;47227;46.752;23.576;2023-03-17T14:02:41;96850.85;;;17.73;18.46
61357;BME280;47227;46.752;23.576;2023-03-17T14:05:22;96852.09;;;17.88;18.71
61357;BME280;47227;46.752;23.576;2023-03-17T14:08:03;96848.56;;;17.94;19.73
61357;BME280;47227;46.752;23.576;2023-03-17T14:17:52;96838.08;;;19.64;18.73
61357;BME280;47227;46.752;23.576;2023-03-17T14:20:23;96841.95;;;20.14;18.82
61357;BME280;47227;46.752;23.576;2023-03-17T14:22:53;96839.59;;;20.38;18.86
61357;BME280;47227;46.752;23.576;2023-03-17T14:25:22;96838.82;;;20.68;18.82
61357;BME280;47227;46.752;23.576;2023-03-17T14:27:51;96838.34;;;20.72;19.30
61357;BME280;47227;46.752;23.576;2023-03-17T14:30:22;96838.20;;;20.22;18.80
61357;BME280;47227;46.752;23.576;2023-03-17T14:35:36;96833.56;;;19.91;19.33
61357;BME280;47227;46.752;23.576;2023-03-17T14:38:16;96840.35;;;19.47;19.15
61357;BME280;47227;46.752;23.576;2023-03-17T14:40:45;96843.41;;;19.56;19.53
61357;BME280;47227;46.752;23.576;2023-03-17T14:43:13;96843.20;;;19.86;19.46
61357;BME280;47227;46.752;23.576;2023-03-17T14:45:45;96844.88;;;19.12;18.89
61357;BME280;47227;46.752;23.576;2023-03-17T14:48:15;96848.77;;;18.64;18.96
61357;BME280;47227;46.752;23.576;2023-03-17T14:53:35;96843.03;;;17.28;20.82
61357;BME280;47227;46.752;23.576;2023-03-17T14:56:05;96843.14;;;17.12;20.39
61357;BME280;47227;46.752;23.576;2023-03-17T14:58:36;96840.95;;;17.29;19.87
61357;BME280;47227;46.752;23.576;2023-03-17T15:01:07;96838.77;;;16.96;20.12
61357;BME280;47227;46.752;23.576;2023-03-17T15:03:39;96837.94;;;16.56;20.49
61357;BME280;47227;46.752;23.576;2023-03-17T15:08:47;96829.19;;;16.45;20.40
61357;BME280;47227;46.752;23.576;2023-03-17T15:11:16;96832.73;;;16.74;20.13
61357;BME280;47227;46.752;23.576;2023-03-17T15:13:45;96832.27;;;17.02;20.51
61357;BME280;47227;46.752;23.576;2023-03-17T15:16:17;96833.80;;;16.44;20.73
61357;BME280;47227;46.752;23.576;2023-03-17T15:18:48;96832.74;;;16.28;21.20
61357;BME280;47227;46.752;23.576;2023-03-17T15:21:21;96834.05;;;16.48;21.09
61357;BME280;47227;46.752;23.576;2023-03-17T15:23:50;96834.36;;;15.99;20.83
61357;BME280;47227;46.752;23.576;2023-03-17T15:26:19;96835.85;;;16.59;21.30
61357;BME280;47227;46.752;23.576;2023-03-17T15:28:48;96832.98;;;16.39;20.54
61357;BME280;47227;46.752;23.576;2023-03-17T15:31:16;96831.05;;;16.06;20.72
61357;BME280;47227;46.752;23.576;2023-03-17T15:33:44;96826.96;;;15.57;21.60
61357;BME280;47227;46.752;23.576;2023-03-17T15:36:13;96823.61;;;15.33;21.93
61357;BME280;47227;46.752;23.576;2023-03-17T15:39:07;96824.93;;;13.62;23.44
61357;BME280;47227;46.752;23.576;2023-03-17T15:43:01;96828.20;;;12.66;24.79
61357;BME280;47227;46.752;23.576;2023-03-17T15:46:47;96826.99;;;11.31;26.46
61357;BME280;47227;46.752;23.576;2023-03-17T15:50:31;96828.08;;;10.78;27.17
61357;BME280;47227;46.752;23.576;2023-03-17T15:54:11;96825.52;;;10.62;27.75
61357;BME280;47227;46.752;23.576;2023-03-17T15:57:32;96824.21;;;10.57;27.70
61357;BME280;47227;46.752;23.576;2023-03-17T16:01:11;96820.93;;;10.97;27.14